Time;durP1;ratioP1;P1;durP2;ratioP2;P2;SDS_P1;SDS_P2;PMS_P1;PMS_P2;Temp;Humidity;BMP_temperature;BMP_pressure;BME280_temperature;BME280_humidity;BME280_pressure;Samples;Min_cycle;Max_cycle;Signal;HPM_P1;HPM_P2
2022/09/12 00:01:49;;;;;;;4.15;2.97;;;;;;;15.91;76.97;98684.72;5170057;27;20495;-92
2022/09/12 00:04:15;;;;;;;3.92;2.75;;;;;;;15.89;76.99;98691.09;5171097;27;20053;-89
2022/09/12 00:06:41;;;;;;;5.10;2.63;;;;;;;15.93;77.09;98709.66;5170818;27;20499;-92
2022/09/12 00:09:09;;;;;;;4.50;2.70;;;;;;;15.84;77.78;98698.53;5170547;27;20038;-93
2022/09/12 00:11:36;;;;;;;4.00;2.60;;;;;;;15.84;77.63;98690.47;5170248;27;20126;-90
2022/09/12 00:14:03;;;;;;;3.83;2.70;;;;;;;15.82;78.39;98699.44;5170810;27;20046;-89
2022/09/12 00:16:32;;;;;;;7.75;3.00;;;;;;;16.00;79.33;98710.19;5170477;27;20038;-90
2022/09/12 00:18:59;;;;;;;6.30;3.30;;;;;;;16.09;78.95;98701.72;5158951;27;20035;-89
2022/09/12 00:21:24;;;;;;;7.82;3.25;;;;;;;16.12;78.23;98690.81;5156771;27;20047;-90
2022/09/12 00:23:52;;;;;;;6.35;2.90;;;;;;;16.03;78.96;98691.28;5153527;27;20145;-91
2022/09/12 00:26:19;;;;;;;4.20;2.92;;;;;;;16.11;78.67;98697.16;5156854;27;20034;-92
2022/09/12 00:28:46;;;;;;;4.75;3.00;;;;;;;16.09;79.00;98682.03;5157394;27;20038;-88
2022/09/12 00:31:14;;;;;;;5.55;3.28;;;;;;;16.09;79.00;98685.63;5156514;27;20039;-92
2022/09/12 00:33:41;;;;;;;6.50;3.50;;;;;;;16.15;78.93;98687.09;5157080;27;20039;-92
2022/09/12 00:36:10;;;;;;;5.97;3.20;;;;;;;16.31;78.43;98703.28;5147925;27;20043;-91
2022/09/12 00:38:37;;;;;;;4.35;3.17;;;;;;;16.30;78.96;98696.19;5133958;27;20035;-91
2022/09/12 00:41:03;;;;;;;6.18;3.25;;;;;;;16.21;79.33;98674.25;5135625;27;20039;-92
2022/09/12 00:43:35;;;;;;;4.43;3.20;;;;;;;16.31;78.83;98700.59;5135981;27;20059;-92
2022/09/12 00:46:06;;;;;;;4.20;3.05;;;;;;;16.32;78.56;98695.16;5131591;27;20035;-91
2022/09/12 00:48:36;;;;;;;4.10;3.00;;;;;;;16.26;78.86;98698.16;5135721;27;20070;-91
2022/09/12 00:51:03;;;;;;;5.22;3.00;;;;;;;16.17;79.70;98688.75;5135563;27;20055;-91
2022/09/12 00:53:30;;;;;;;4.78;2.80;;;;;;;16.13;79.00;98678.25;5135341;27;20085;-94
2022/09/12 00:55:57;;;;;;;7.60;3.00;;;;;;;16.32;78.03;98694.28;5133993;27;20031;-92
2022/09/12 00:58:26;;;;;;;4.13;3.17;;;;;;;16.34;78.71;98681.66;5135706;27;20140;-93
2022/09/12 01:00:52;;;;;;;5.00;3.00;;;;;;;16.19;78.80;98668.09;5136318;27;20407;-92
2022/09/12 01:03:21;;;;;;;5.05;3.38;;;;;;;16.15;79.75;98676.38;5135283;27;20440;-92
2022/09/12 01:05:52;;;;;;;5.90;3.13;;;;;;;16.09;80.35;98679.38;5134573;27;20100;-93
2022/09/12 01:08:20;;;;;;;6.63;3.00;;;;;;;16.08;80.63;98680.31;5133703;27;20039;-93
2022/09/12 01:10:47;;;;;;;5.35;3.08;;;;;;;15.99;82.24;98668.25;5135564;27;20035;-91
2022/09/12 01:13:13;;;;;;;6.10;3.00;;;;;;;15.94;81.11;98664.91;5135131;27;20028;-92
2022/09/12 01:15:39;;;;;;;5.72;3.20;;;;;;;15.84;81.31;98677.06;5135233;27;20504;-92
2022/09/12 01:18:13;;;;;;;6.38;2.90;;;;;;;15.71;81.89;98672.31;5134946;27;20526;-92
2022/09/12 01:21:06;;;;;;;3.90;2.63;;;;;;;15.54;82.72;98674.91;5133671;27;20118;-91
2022/09/12 01:24:13;;;;;;;3.33;2.80;;;;;;;15.46;83.25;98683.34;5135074;27;20035;-92
2022/09/12 01:27:07;;;;;;;9.40;3.72;;;;;;;15.28;83.85;98681.53;5133169;27;20027;-91
2022/09/12 01:30:02;;;;;;;4.93;2.97;;;;;;;15.17;83.74;98682.91;5130950;27;20494;-91
2022/09/12 01:32:41;;;;;;;5.22;2.95;;;;;;;15.10;84.25;98688.63;5064721;28;20413;-94
2022/09/12 01:35:19;;;;;;;4.00;3.00;;;;;;;14.98;84.68;98682.03;5055545;28;20053;-94
2022/09/12 01:37:56;;;;;;;6.25;2.95;;;;;;;14.95;84.97;98690.22;5058414;28;20075;-91
2022/09/12 01:40:30;;;;;;;5.93;3.20;;;;;;;14.81;85.69;98680.13;5061216;28;20110;-92
2022/09/12 01:43:03;;;;;;;5.22;3.70;;;;;;;14.76;86.08;98679.47;5064670;28;20131;-93
2022/09/12 01:45:39;;;;;;;4.35;2.95;;;;;;;14.78;86.16;98674.91;5060508;28;20535;-91
2022/09/12 01:48:12;;;;;;;4.10;2.88;;;;;;;14.76;86.39;98676.78;5064681;28;20049;-90
2022/09/12 01:50:45;;;;;;;4.68;2.80;;;;;;;14.65;86.44;98663.03;5057766;28;20056;-93
2022/09/12 01:53:15;;;;;;;4.97;3.25;;;;;;;14.66;87.48;98679.03;5056773;28;20041;-91
2022/09/12 01:55:45;;;;;;;5.10;3.17;;;;;;;14.54;86.95;98664.34;5062081;28;20041;-92
2022/09/12 01:58:16;;;;;;;4.75;3.20;;;;;;;14.54;87.72;98667.03;5059407;28;20433;-91
2022/09/12 02:00:47;;;;;;;6.18;3.05;;;;;;;14.51;87.84;98679.69;5061852;28;20041;-92
2022/09/12 02:03:19;;;;;;;4.00;2.92;;;;;;;14.41;88.26;98667.66;5058878;28;20079;-91
2022/09/12 02:05:50;;;;;;;5.90;3.50;;;;;;;14.30;88.43;98670.81;5057033;28;20132;-92
2022/09/12 02:08:21;;;;;;;9.77;3.20;;;;;;;14.35;88.86;98677.66;5058289;28;20075;-91
2022/09/12 02:10:52;;;;;;;4.63;3.05;;;;;;;14.23;89.12;98674.69;5132161;27;20042;-91
2022/09/12 02:13:23;;;;;;;4.57;3.10;;;;;;;14.12;89.05;98659.09;5132625;27;20122;-93
2022/09/12 02:15:54;;;;;;;5.57;3.20;;;;;;;14.17;89.55;98665.97;5133895;27;20066;-91
2022/09/12 02:18:26;;;;;;;4.60;3.08;;;;;;;14.14;89.96;98666.13;5133871;27;20039;-92
2022/09/12 02:20:52;;;;;;;5.57;3.22;;;;;;;14.06;91.32;98660.22;5125856;27;20050;-93
2022/09/12 02:23:22;;;;;;;6.45;3.65;;;;;;;14.13;91.44;98669.72;5134064;27;20031;-91
2022/09/12 02:25:53;;;;;;;7.20;3.80;;;;;;;14.03;92.46;98647.00;5132613;27;20050;-92
2022/09/12 02:28:25;;;;;;;7.68;3.75;;;;;;;14.30;92.91;98668.13;5133023;27;20039;-94
2022/09/12 02:30:59;;;;;;;6.63;4.15;;;;;;;14.34;92.20;98667.06;5133913;27;20057;-92
2022/09/12 02:33:31;;;;;;;4.63;3.45;;;;;;;14.33;92.59;98658.16;5133384;27;20050;-91
2022/09/12 02:36:03;;;;;;;5.05;3.40;;;;;;;14.52;91.84;98660.00;5134362;27;20035;-91
2022/09/12 02:38:36;;;;;;;4.80;3.25;;;;;;;14.46;90.94;98647.75;5134016;27;20035;-93
2022/09/12 02:41:03;;;;;;;6.35;3.30;;;;;;;14.47;90.83;98654.88;5133603;27;20521;-92
2022/09/12 02:43:28;;;;;;;5.30;3.20;;;;;;;14.56;90.93;98664.31;5133668;27;20043;-91
2022/09/12 02:45:54;;;;;;;5.72;3.38;;;;;;;14.45;90.61;98659.41;5133757;27;20031;-92
2022/09/12 02:48:24;;;;;;;6.65;3.60;;;;;;;14.40;91.99;98669.47;5133488;27;20533;-91
2022/09/12 02:50:52;;;;;;;5.70;3.92;;;;;;;14.37;92.62;98664.22;5131956;27;20492;-92
2022/09/12 02:53:18;;;;;;;6.13;3.60;;;;;;;14.28;92.78;98637.91;5132957;27;20050;-93
2022/09/12 02:55:44;;;;;;;6.30;3.50;;;;;;;14.46;92.72;98668.31;5135080;27;20803;-92
2022/09/12 02:58:14;;;;;;;6.13;3.85;;;;;;;14.41;92.88;98659.63;5133340;27;20049;-92
2022/09/12 03:00:47;;;;;;;4.90;3.33;;;;;;;14.38;92.79;98652.63;5131424;27;20059;-91
2022/09/12 03:03:38;;;;;;;6.07;3.30;;;;;;;14.56;92.51;98675.88;5133020;27;20046;-92
2022/09/12 03:06:15;;;;;;;5.40;3.60;;;;;;;14.49;92.18;98673.53;5131756;28;20039;-92
2022/09/12 03:08:54;;;;;;;7.32;4.20;;;;;;;14.45;92.06;98674.63;5132426;28;20434;-92
2022/09/12 03:11:41;;;;;;;6.53;3.78;;;;;;;14.42;92.38;98672.06;5131232;28;20035;-93
2022/09/12 03:14:20;;;;;;;6.05;3.90;;;;;;;14.28;93.65;98664.66;5130361;28;20043;-92
2022/09/12 03:16:55;;;;;;;4.97;4.15;;;;;;;14.24;94.25;98652.34;5132029;28;20108;-92
2022/09/12 03:19:27;;;;;;;6.20;4.00;;;;;;;14.25;95.05;98664.75;5133675;28;20039;-92
2022/09/12 03:22:08;;;;;;;6.30;4.55;;;;;;;14.20;95.05;98659.63;5129236;28;20396;-92
2022/09/12 03:24:38;;;;;;;6.43;4.35;;;;;;;14.23;95.65;98669.34;5132279;28;20040;-92
2022/09/12 03:27:10;;;;;;;6.00;4.35;;;;;;;14.18;95.01;98665.06;5132967;28;20031;-93
2022/09/12 03:29:38;;;;;;;7.00;4.63;;;;;;;14.15;95.15;98672.34;5134491;28;20122;-93
2022/09/12 03:32:04;;;;;;;8.65;4.80;;;;;;;13.98;96.08;98663.22;5133338;28;20047;-91
2022/09/12 03:34:29;;;;;;;7.53;4.70;;;;;;;13.92;96.76;98659.94;5126885;28;20043;-92
2022/09/12 03:36:57;;;;;;;7.28;5.00;;;;;;;13.81;97.18;98665.72;5132671;28;20042;-93
2022/09/12 03:39:25;;;;;;;7.78;4.88;;;;;;;13.83;97.53;98676.38;5134737;28;20041;-93
2022/09/12 03:41:51;;;;;;;7.88;5.80;;;;;;;13.68;98.08;98659.16;5134388;28;20059;-93
2022/09/12 03:44:17;;;;;;;9.63;4.68;;;;;;;13.65;98.71;98664.66;5134024;28;20070;-91
2022/09/12 03:46:43;;;;;;;6.78;5.18;;;;;;;13.56;98.85;98650.72;5133974;28;20036;-93
2022/09/12 03:49:09;;;;;;;10.45;5.07;;;;;;;13.70;99.21;98676.88;5133503;28;20042;-91
2022/09/12 03:51:35;;;;;;;7.20;4.55;;;;;;;13.60;98.86;98662.16;5133946;28;20212;-94
2022/09/12 03:54:02;;;;;;;7.47;5.00;;;;;;;13.57;98.92;98662.28;5135917;27;20549;-94
2022/09/12 03:56:28;;;;;;;7.50;4.72;;;;;;;13.65;99.02;98681.53;5135727;27;20045;-91
2022/09/12 03:58:54;;;;;;;11.30;5.25;;;;;;;13.53;99.32;98671.34;5136623;27;20051;-93
2022/09/12 04:01:20;;;;;;;7.00;5.00;;;;;;;13.46;99.82;98664.53;5137069;27;20035;-91
2022/09/12 04:03:48;;;;;;;7.72;5.25;;;;;;;13.38;100.00;98667.53;5137477;27;20043;-91
2022/09/12 04:06:16;;;;;;;9.32;5.22;;;;;;;13.42;100.00;98682.47;5131719;27;21043;-93
2022/09/12 04:08:43;;;;;;;12.77;5.60;;;;;;;13.34;100.00;98656.06;5116464;28;20043;-91
2022/09/12 04:11:12;;;;;;;8.43;5.10;;;;;;;13.34;100.00;98676.59;5114357;28;20044;-94
2022/09/12 04:13:39;;;;;;;8.48;4.70;;;;;;;13.36;100.00;98680.06;5116324;28;20047;-92
2022/09/12 04:16:06;;;;;;;7.95;4.93;;;;;;;13.14;100.00;98648.84;5116426;28;20057;-92
2022/09/12 04:18:32;;;;;;;9.38;5.20;;;;;;;13.21;100.00;98665.47;5111230;28;20039;-92
2022/09/12 04:21:03;;;;;;;9.38;5.30;;;;;;;13.22;100.00;98674.34;5116351;28;20048;-93
2022/09/12 04:23:28;;;;;;;7.78;5.15;;;;;;;13.11;100.00;98656.09;5117471;27;20059;-91
2022/09/12 04:25:55;;;;;;;7.63;5.75;;;;;;;13.18;100.00;98673.59;5116007;28;20035;-92
2022/09/12 04:28:23;;;;;;;9.32;6.05;;;;;;;13.21;100.00;98686.84;5115888;28;20085;-92
2022/09/12 04:30:49;;;;;;;9.60;5.40;;;;;;;13.15;100.00;98669.25;5114829;28;20050;-92
2022/09/12 04:33:14;;;;;;;8.10;5.22;;;;;;;13.18;100.00;98681.59;5116043;28;21389;-92
2022/09/12 04:35:41;;;;;;;9.18;5.68;;;;;;;13.20;100.00;98690.41;5113713;28;20050;-93
2022/09/12 04:38:08;;;;;;;6.32;5.03;;;;;;;13.13;100.00;98681.78;5115809;28;20075;-92
2022/09/12 04:40:34;;;;;;;6.85;4.78;;;;;;;13.06;100.00;98682.09;5116144;28;20046;-92
2022/09/12 04:42:59;;;;;;;7.20;4.60;;;;;;;13.07;100.00;98689.16;5115578;28;20031;-92
2022/09/12 04:45:27;;;;;;;6.75;4.68;;;;;;;13.06;100.00;98698.13;5115774;28;20089;-93
2022/09/12 04:47:52;;;;;;;7.88;4.75;;;;;;;12.99;100.00;98689.47;5115841;28;20040;-91
2022/09/12 04:50:19;;;;;;;11.75;5.00;;;;;;;13.00;100.00;98693.88;5115588;27;20036;-92
2022/09/12 04:52:49;;;;;;;6.25;4.75;;;;;;;12.95;100.00;98685.19;5115762;28;20067;-92
2022/09/12 04:55:14;;;;;;;6.57;4.68;;;;;;;13.03;100.00;98699.06;5115331;28;20040;-92
2022/09/12 04:57:40;;;;;;;6.85;4.35;;;;;;;12.94;100.00;98697.63;5115542;28;20542;-92
2022/09/12 05:00:08;;;;;;;9.98;4.63;;;;;;;12.99;100.00;98699.25;5115522;28;20039;-92
2022/09/12 05:02:35;;;;;;;7.00;4.60;;;;;;;12.97;100.00;98701.09;5115800;28;20062;-92
2022/09/12 05:05:01;;;;;;;8.80;5.45;;;;;;;12.95;100.00;98702.06;5117212;27;20096;-93
2022/09/12 05:07:26;;;;;;;7.30;4.80;;;;;;;13.00;100.00;98709.03;5115262;27;20040;-93
2022/09/12 05:09:52;;;;;;;7.43;4.80;;;;;;;12.92;100.00;98710.19;5115649;28;20110;-91
2022/09/12 05:12:18;;;;;;;7.70;5.00;;;;;;;13.00;100.00;98719.69;5112966;27;20043;-92
2022/09/12 05:14:44;;;;;;;8.23;5.00;;;;;;;13.01;100.00;98727.66;5111301;28;20058;-92
2022/09/12 05:17:10;;;;;;;9.38;6.32;;;;;;;13.10;100.00;98721.09;5113895;28;20366;-92
2022/09/12 05:19:38;;;;;;;9.93;5.85;;;;;;;13.13;100.00;98715.63;5117558;28;20117;-93
2022/09/12 05:22:05;;;;;;;11.55;6.03;;;;;;;13.16;100.00;98712.81;5114907;28;20060;-94
2022/09/12 05:24:31;;;;;;;9.98;5.72;;;;;;;13.31;100.00;98728.28;5117208;27;20063;-93
2022/09/12 05:26:57;;;;;;;9.15;5.60;;;;;;;13.27;100.00;98707.97;5115367;28;20039;-91
2022/09/12 05:29:24;;;;;;;8.43;5.90;;;;;;;13.34;100.00;98714.84;5115804;28;20065;-92
2022/09/12 05:31:51;;;;;;;12.52;5.97;;;;;;;13.47;100.00;98722.38;5100852;28;20545;-92
2022/09/12 05:34:16;;;;;;;9.95;5.85;;;;;;;13.54;99.56;98727.41;5114257;28;20036;-92
2022/09/12 05:36:44;;;;;;;9.32;6.18;;;;;;;13.53;99.67;98735.47;5114889;28;20081;-93
2022/09/12 05:39:10;;;;;;;11.15;6.90;;;;;;;13.49;100.00;98741.88;5112612;28;20035;-92
2022/09/12 05:41:36;;;;;;;10.00;6.53;;;;;;;13.56;100.00;98738.03;5115310;28;20073;-93
2022/09/12 05:44:04;;;;;;;11.27;6.82;;;;;;;13.68;99.96;98752.69;5115552;28;20067;-91
2022/09/12 05:46:31;;;;;;;9.73;6.38;;;;;;;13.58;100.00;98716.59;5114942;28;20446;-93
2022/09/12 05:49:02;;;;;;;10.82;5.68;;;;;;;13.77;99.54;98734.50;5114383;28;20048;-93
2022/09/12 05:51:32;;;;;;;9.48;5.93;;;;;;;13.88;99.04;98731.38;5115263;28;20051;-93
2022/09/12 05:54:02;;;;;;;10.63;6.90;;;;;;;14.02;97.52;98746.00;5114392;28;20044;-93
2022/09/12 05:56:29;;;;;;;15.32;6.60;;;;;;;14.13;95.98;98747.25;5114156;28;20044;-93
2022/09/12 05:58:57;;;;;;;10.48;7.07;;;;;;;14.12;95.48;98733.97;5115669;28;20043;-94
2022/09/12 06:01:25;;;;;;;11.37;7.00;;;;;;;14.11;95.21;98741.09;5114210;27;20532;-94
2022/09/12 06:03:54;;;;;;;12.35;7.85;;;;;;;14.12;96.31;98745.53;5113305;28;20666;-92
2022/09/12 06:06:21;;;;;;;10.52;6.53;;;;;;;14.25;95.26;98755.69;5116017;28;20073;-93
2022/09/12 06:08:48;;;;;;;10.30;7.30;;;;;;;14.11;95.92;98733.09;5116125;28;20035;-92
2022/09/12 06:11:18;;;;;;;9.48;6.68;;;;;;;14.24;95.91;98729.91;5116997;28;20036;-92
2022/09/12 06:13:44;;;;;;;13.90;6.40;;;;;;;14.40;94.46;98731.00;5116686;28;20040;-91
2022/09/12 06:16:15;;;;;;;9.77;6.30;;;;;;;14.33;93.75;98714.34;5117755;28;20046;-93
2022/09/12 06:18:46;;;;;;;10.45;7.15;;;;;;;14.49;93.49;98751.13;5119067;28;20481;-94
2022/09/12 06:21:15;;;;;;;10.77;7.13;;;;;;;14.45;93.83;98728.13;5115875;28;20057;-93
2022/09/12 06:23:41;;;;;;;10.98;6.75;;;;;;;14.55;93.48;98726.78;5118944;28;20074;-92
2022/09/12 06:26:09;;;;;;;12.98;6.60;;;;;;;14.76;93.28;98733.00;5118523;28;20043;-93
2022/09/12 06:28:38;;;;;;;10.63;7.20;;;;;;;14.82;91.87;98731.88;5115577;28;20039;-92
2022/09/12 06:31:06;;;;;;;11.07;6.78;;;;;;;15.07;90.85;98739.66;5117546;28;20559;-92
2022/09/12 06:33:34;;;;;;;10.18;6.78;;;;;;;15.12;90.38;98727.78;5119100;28;20696;-93
2022/09/12 06:36:08;;;;;;;11.45;6.72;;;;;;;15.27;89.36;98753.00;5117847;28;20032;-93
2022/09/12 06:38:34;;;;;;;10.02;6.10;;;;;;;15.54;87.80;98761.53;5118217;28;20035;-91
2022/09/12 06:41:03;;;;;;;12.43;6.55;;;;;;;15.50;88.17;98746.53;5119530;28;20043;-91
2022/09/12 06:43:29;;;;;;;9.55;6.63;;;;;;;15.65;88.47;98754.81;5118192;28;20050;-92
2022/09/12 06:45:57;;;;;;;9.90;6.40;;;;;;;15.73;87.29;98753.53;5118763;27;20446;-93
2022/09/12 06:48:23;;;;;;;11.75;5.90;;;;;;;15.77;86.03;98732.81;5119016;28;20036;-92
2022/09/12 06:50:59;;;;;;;13.15;6.63;;;;;;;15.70;84.67;98734.91;5118894;28;20047;-93
2022/09/12 06:53:26;;;;;;;8.80;5.90;;;;;;;15.69;85.58;98730.47;5112657;28;20050;-91
2022/09/12 06:55:57;;;;;;;10.38;5.95;;;;;;;15.99;85.66;98737.97;5118979;28;20070;-93
2022/09/12 06:58:23;;;;;;;11.07;6.43;;;;;;;15.93;84.90;98730.25;5117545;28;20027;-92
2022/09/12 07:00:49;;;;;;;11.63;7.28;;;;;;;15.86;84.26;98718.09;5117385;28;20040;-94
2022/09/12 07:03:17;;;;;;;15.70;7.10;;;;;;;16.10;85.12;98753.53;5116925;28;20047;-93
2022/09/12 07:05:43;;;;;;;11.65;6.47;;;;;;;16.45;85.07;98746.38;5117859;28;20059;-90
2022/09/12 07:08:09;;;;;;;9.90;6.13;;;;;;;16.61;81.78;98728.56;5126318;28;20039;-92
2022/09/12 07:10:35;;;;;;;7.93;6.05;;;;;;;16.95;81.29;98736.66;5110645;28;20069;-90
2022/09/12 07:13:01;;;;;;;13.88;6.55;;;;;;;17.14;79.15;98715.03;5123799;28;20197;-91
2022/09/12 07:15:27;;;;;;;9.98;6.35;;;;;;;17.28;77.92;98730.41;5117627;28;20032;-92
2022/09/12 07:17:53;;;;;;;9.70;5.10;;;;;;;17.53;77.34;98746.03;5116933;28;20055;-93
2022/09/12 07:20:21;;;;;;;8.50;5.72;;;;;;;17.69;75.48;98738.84;5116467;28;20063;-93
2022/09/12 07:22:47;;;;;;;7.82;5.82;;;;;;;17.59;76.60;98721.50;5112484;28;20044;-94
2022/09/12 07:25:13;;;;;;;10.07;5.55;;;;;;;17.71;73.03;98726.16;5115740;28;20096;-93
2022/09/12 07:27:39;;;;;;;7.75;5.38;;;;;;;17.53;75.01;98727.22;5110270;28;20043;-93
2022/09/12 07:30:06;;;;;;;9.80;5.82;;;;;;;17.73;73.00;98726.94;5118978;28;20060;-95
2022/09/12 07:32:32;;;;;;;14.05;6.05;;;;;;;17.78;73.28;98716.81;5122202;28;20050;-91
2022/09/12 07:34:58;;;;;;;8.75;5.05;;;;;;;17.94;73.54;98724.91;5120649;28;20096;-91
2022/09/12 07:37:30;;;;;;;10.35;5.82;;;;;;;18.24;72.15;98719.53;5120239;28;20035;-91
2022/09/12 07:39:56;;;;;;;13.25;5.60;;;;;;;18.66;69.99;98746.69;5118057;28;20040;-91
2022/09/12 07:42:22;;;;;;;6.80;5.13;;;;;;;18.55;70.03;98725.78;5119557;27;20044;-93
2022/09/12 07:44:49;;;;;;;7.00;5.00;;;;;;;18.68;69.33;98724.06;5124032;27;20038;-91
2022/09/12 07:47:15;;;;;;;8.05;5.15;;;;;;;18.79;69.96;98723.44;5115669;28;20089;-92
2022/09/12 07:49:41;;;;;;;7.88;4.93;;;;;;;18.92;69.54;98744.25;5121086;28;20040;-92
2022/09/12 07:52:07;;;;;;;8.30;5.40;;;;;;;19.07;69.73;98741.47;5122680;27;20458;-94
2022/09/12 07:54:35;;;;;;;8.18;5.30;;;;;;;19.15;69.79;98738.31;5124072;27;20529;-91
2022/09/12 07:57:01;;;;;;;9.25;5.22;;;;;;;19.22;69.08;98722.59;5122974;27;20039;-93
2022/09/12 07:59:27;;;;;;;10.68;5.45;;;;;;;19.35;67.26;98733.47;5123907;27;20040;-92
2022/09/12 08:01:53;;;;;;;8.98;4.97;;;;;;;19.64;67.34;98735.16;5122518;27;20067;-91
2022/09/12 08:04:20;;;;;;;9.38;5.40;;;;;;;19.98;67.61;98753.72;5117584;27;20047;-92
2022/09/12 08:06:45;;;;;;;9.00;5.25;;;;;;;20.15;65.45;98742.66;5125581;27;20043;-94
2022/09/12 08:09:11;;;;;;;10.40;5.10;;;;;;;20.28;64.10;98731.91;5147749;27;20057;-94
2022/09/12 08:11:39;;;;;;;13.02;5.50;;;;;;;20.51;64.44;98727.63;5158291;27;20038;-94
2022/09/12 08:14:04;;;;;;;8.70;5.30;;;;;;;20.79;62.73;98736.56;5159100;27;20046;-92
2022/09/12 08:16:31;;;;;;;10.40;5.05;;;;;;;20.90;63.92;98732.13;5158626;27;20551;-93
2022/09/12 08:18:59;;;;;;;9.10;5.00;;;;;;;21.04;63.16;98717.66;5157963;27;20034;-91
2022/09/12 08:21:27;;;;;;;10.82;5.95;;;;;;;21.27;58.76;98731.38;5160062;27;20051;-93
2022/09/12 08:23:55;;;;;;;11.10;5.68;;;;;;;21.01;60.73;98727.81;5160566;27;20117;-91
2022/09/12 08:26:22;;;;;;;9.27;5.35;;;;;;;21.26;60.39;98721.53;5162860;27;20047;-91
2022/09/12 08:28:50;;;;;;;7.93;4.90;;;;;;;21.38;59.38;98728.75;5163855;27;20700;-90
2022/09/12 08:31:18;;;;;;;7.47;4.95;;;;;;;21.67;58.88;98742.06;5162561;27;20138;-92
2022/09/12 08:33:44;;;;;;;13.73;5.18;;;;;;;21.82;57.60;98743.66;5165066;27;20038;-90
2022/09/12 08:36:12;;;;;;;11.85;5.28;;;;;;;22.05;58.71;98738.34;5162390;27;20039;-91
2022/09/12 08:38:40;;;;;;;8.35;4.82;;;;;;;22.13;57.82;98723.25;5154485;27;20118;-92
2022/09/12 08:41:13;;;;;;;8.60;4.78;;;;;;;22.28;57.36;98731.25;5161120;27;20130;-90
2022/09/12 08:43:55;;;;;;;7.47;4.47;;;;;;;22.49;57.01;98743.16;5161211;27;20050;-93
2022/09/12 08:46:25;;;;;;;7.28;4.40;;;;;;;22.55;56.75;98714.72;5155431;27;20426;-91
2022/09/12 08:48:51;;;;;;;9.23;4.63;;;;;;;22.10;56.58;98718.09;5159720;27;20133;-94
2022/09/12 08:51:19;;;;;;;9.88;4.10;;;;;;;22.31;56.78;98741.84;5157318;27;20057;-93
2022/09/12 08:53:48;;;;;;;6.23;4.07;;;;;;;22.56;55.63;98730.00;5160312;27;20053;-94
2022/09/12 08:56:15;;;;;;;7.97;4.43;;;;;;;22.49;55.47;98729.59;5159761;27;20125;-92
2022/09/12 08:58:43;;;;;;;9.82;4.22;;;;;;;22.67;55.23;98721.03;5160369;27;20091;-92
2022/09/12 09:01:21;;;;;;;7.57;3.80;;;;;;;22.60;53.46;98733.31;5159280;27;20057;-90
2022/09/12 09:04:12;;;;;;;9.52;3.85;;;;;;;22.74;53.24;98730.41;5155926;27;20039;-93
2022/09/12 09:07:07;;;;;;;6.93;4.03;;;;;;;22.68;52.84;98720.91;5140914;27;20582;-92
2022/09/12 09:09:51;;;;;;;7.03;3.95;;;;;;;22.98;52.75;98744.75;5152083;27;20186;-91
2022/09/12 09:12:25;;;;;;;7.03;4.20;;;;;;;22.64;52.30;98732.09;5157691;27;20536;-91
2022/09/12 09:15:10;;;;;;;5.93;4.03;;;;;;;22.87;51.16;98744.72;5157994;27;20515;-93
2022/09/12 09:17:41;;;;;;;7.25;3.70;;;;;;;22.93;52.27;98737.97;5157002;27;20555;-90
2022/09/12 09:20:21;;;;;;;6.70;3.80;;;;;;;23.05;50.33;98737.06;5157600;27;20575;-94
2022/09/12 09:22:51;;;;;;;8.88;4.18;;;;;;;23.33;49.92;98718.56;5156090;27;20059;-91
2022/09/12 09:25:20;;;;;;;6.85;3.55;;;;;;;23.49;48.30;98739.91;5157331;27;20042;-89
2022/09/12 09:27:52;;;;;;;6.90;3.90;;;;;;;23.57;47.88;98723.84;5159035;27;20042;-91
2022/09/12 09:30:20;;;;;;;6.38;3.72;;;;;;;23.82;47.26;98725.47;5158003;27;20459;-93
2022/09/12 09:32:52;;;;;;;6.72;3.58;;;;;;;24.04;47.23;98724.53;5155745;27;20051;-94
2022/09/12 09:35:24;;;;;;;6.38;3.75;;;;;;;23.86;46.39;98720.66;5159677;27;20035;-89
2022/09/12 09:38:16;;;;;;;6.68;3.85;;;;;;;24.19;45.42;98719.69;5155430;27;20045;-93
2022/09/12 09:40:51;;;;;;;6.85;3.70;;;;;;;24.39;45.42;98718.00;5157233;27;20040;-93
2022/09/12 09:43:21;;;;;;;6.82;3.20;;;;;;;24.60;44.57;98718.06;5155573;27;20058;-91
2022/09/12 09:45:48;;;;;;;5.20;2.83;;;;;;;24.68;43.05;98714.66;5153712;27;20129;-92
2022/09/12 09:48:20;;;;;;;6.30;2.90;;;;;;;24.32;42.52;98695.91;5159044;27;20472;-92
2022/09/12 09:50:48;;;;;;;5.25;2.70;;;;;;;24.65;40.85;98717.66;5152741;27;20039;-92
2022/09/12 09:53:27;;;;;;;5.10;2.60;;;;;;;24.74;41.03;98705.97;5155008;27;20399;-92
2022/09/12 09:55:55;;;;;;;4.70;2.60;;;;;;;24.95;39.73;98714.13;5151507;27;20038;-91
2022/09/12 09:58:28;;;;;;;4.15;2.15;;;;;;;25.00;36.67;98712.75;5155121;27;20754;-92
2022/09/12 10:00:58;;;;;;;3.35;2.30;;;;;;;25.02;38.11;98699.00;5156294;27;20031;-90
2022/09/12 10:03:30;;;;;;;5.78;2.40;;;;;;;25.15;37.39;98710.50;5151148;27;20999;-94
2022/09/12 10:05:59;;;;;;;4.15;2.53;;;;;;;25.23;39.12;98709.88;5151990;27;20495;-94
2022/09/12 10:08:28;;;;;;;2.70;2.00;;;;;;;25.24;35.65;98702.56;5133105;27;20141;-91
2022/09/12 10:10:56;;;;;;;8.25;2.30;;;;;;;25.10;34.60;98701.91;5137576;27;20050;-91
2022/09/12 10:13:32;;;;;;;2.53;1.65;;;;;;;25.23;34.00;98696.28;5128021;27;20063;-93
2022/09/12 10:16:01;;;;;;;3.08;1.50;;;;;;;25.33;30.66;98707.19;5135161;27;20112;-94
2022/09/12 10:18:41;;;;;;;2.53;1.60;;;;;;;25.26;32.57;98684.25;5132566;27;20094;-91
2022/09/12 10:21:18;;;;;;;2.75;1.50;;;;;;;25.32;32.62;98700.03;5136241;27;20046;-93
2022/09/12 10:23:45;;;;;;;1.73;1.50;;;;;;;25.38;30.89;98703.06;5135279;27;20039;-89
2022/09/12 10:26:13;;;;;;;1.25;1.13;;;;;;;25.32;26.84;98684.56;5132275;27;20046;-92
2022/09/12 10:28:40;;;;;;;1.73;1.33;;;;;;;25.46;29.02;98687.91;5132825;27;20042;-92
2022/09/12 10:31:09;;;;;;;4.23;1.50;;;;;;;25.28;30.07;98687.69;5135499;27;20042;-92
2022/09/12 10:33:42;;;;;;;4.80;1.70;;;;;;;25.06;30.62;98675.09;5136843;27;20127;-94
2022/09/12 10:36:08;;;;;;;2.03;1.50;;;;;;;25.10;32.62;98674.69;5136863;27;20504;-92
2022/09/12 10:38:34;;;;;;;1.70;1.40;;;;;;;25.21;31.36;98680.06;5133602;27;20035;-91
2022/09/12 10:41:03;;;;;;;1.40;1.27;;;;;;;25.44;33.17;98682.59;5133660;27;20039;-93
2022/09/12 10:43:29;;;;;;;;;;;;;;;25.55;32.87;98690.66;5128135;27;20518;-94
2022/09/12 10:46:19;;;;;;;2.50;1.50;;;;;;;25.65;31.26;98678.94;5131814;27;19923;-93
2022/09/12 10:48:47;;;;;;;2.90;1.35;;;;;;;25.72;30.00;98674.63;5130986;27;20797;-90
2022/09/12 10:51:26;;;;;;;1.85;1.20;;;;;;;25.72;27.62;98670.06;5132915;27;20091;-95
2022/09/12 10:53:55;;;;;;;1.20;1.10;;;;;;;25.81;29.03;98665.66;5122729;27;20112;-93
2022/09/12 10:56:24;;;;;;;0.77;0.73;;;;;;;25.89;25.17;98665.81;5122591;27;20068;-94
2022/09/12 10:59:07;;;;;;;0.90;0.57;;;;;;;25.75;25.31;98663.47;5120320;27;20050;-92
2022/09/12 11:01:40;;;;;;;1.10;1.00;;;;;;;25.64;25.46;98663.59;5126110;27;20035;-91
2022/09/12 11:04:29;;;;;;;1.92;1.10;;;;;;;25.77;26.47;98667.78;5133512;27;20399;-92
2022/09/12 11:07:20;;;;;;;0.95;0.80;;;;;;;25.82;26.82;98653.72;5131566;28;20047;-94
2022/09/12 11:09:54;;;;;;;1.48;1.17;;;;;;;25.89;25.59;98663.09;5134144;28;20087;-94
2022/09/12 11:12:30;;;;;;;2.10;1.20;;;;;;;25.96;26.67;98661.53;5128904;28;20062;-91
2022/09/12 11:15:09;;;;;;;1.80;1.00;;;;;;;25.99;26.68;98660.38;5134255;27;20035;-92
2022/09/12 11:17:46;;;;;;;3.70;1.60;;;;;;;26.06;29.15;98660.69;5111667;28;20058;-92
2022/09/12 11:20:39;;;;;;;1.05;0.82;;;;;;;26.13;27.92;98659.09;5132460;28;20042;-91
2022/09/12 11:23:38;;;;;;;0.80;0.80;;;;;;;26.13;25.91;98656.38;5132543;28;20036;-95
2022/09/12 11:26:18;;;;;;;0.60;0.60;;;;;;;26.07;24.36;98651.50;5106700;28;20158;-90
2022/09/12 11:28:52;;;;;;;1.10;1.00;;;;;;;26.13;26.12;98643.63;5129810;28;20039;-91
2022/09/12 11:32:05;;;;;;;0.60;0.57;;;;;;;26.03;23.81;98638.16;5137082;28;20036;-93
2022/09/12 11:34:41;;;;;;;0.55;0.55;;;;;;;26.11;23.66;98653.81;5097176;28;20426;-91
2022/09/12 11:37:26;;;;;;;1.52;1.00;;;;;;;26.17;27.99;98652.34;5134673;27;20092;-92
2022/09/12 11:39:55;;;;;;;1.10;1.05;;;;;;;26.27;29.40;98657.81;5132131;27;20519;-90
2022/09/12 11:42:29;;;;;;;0.75;0.65;;;;;;;26.28;24.33;98641.31;5130488;28;20127;-91
2022/09/12 11:45:02;;;;;;;0.70;0.70;;;;;;;26.41;24.17;98643.72;5129519;28;20035;-93
2022/09/12 11:47:31;;;;;;;1.52;1.30;;;;;;;26.30;25.25;98620.22;5133443;27;20116;-92